sensor_id;sensor_type;location;lat;lon;timestamp;temperature;humidity
47456;DHT22;33202;48.512;-2.780;2023-01-23T00:01:48;0.60;99.90
47456;DHT22;33202;48.512;-2.780;2023-01-23T00:04:14;0.60;96.20
47456;DHT22;33202;48.512;-2.780;2023-01-23T00:06:40;0.50;94.00
47456;DHT22;33202;48.512;-2.780;2023-01-23T00:09:06;0.40;91.40
47456;DHT22;33202;48.512;-2.780;2023-01-23T00:11:32;0.40;90.30
47456;DHT22;33202;48.512;-2.780;2023-01-23T00:13:59;0.40;85.00
47456;DHT22;33202;48.512;-2.780;2023-01-23T00:16:27;0.30;81.40
47456;DHT22;33202;48.512;-2.780;2023-01-23T00:18:54;0.30;82.90
47456;DHT22;33202;48.512;-2.780;2023-01-23T00:21:25;0.30;86.20
47456;DHT22;33202;48.512;-2.780;2023-01-23T00:23:53;0.30;90.10
47456;DHT22;33202;48.512;-2.780;2023-01-23T00:26:24;0.30;89.90
47456;DHT22;33202;48.512;-2.780;2023-01-23T00:28:50;0.30;87.80
47456;DHT22;33202;48.512;-2.780;2023-01-23T00:31:22;0.40;91.90
47456;DHT22;33202;48.512;-2.780;2023-01-23T00:33:53;0.40;95.60
47456;DHT22;33202;48.512;-2.780;2023-01-23T00:36:19;0.50;96.50
47456;DHT22;33202;48.512;-2.780;2023-01-23T00:38:44;0.60;95.80
47456;DHT22;33202;48.512;-2.780;2023-01-23T00:41:10;0.60;92.10
47456;DHT22;33202;48.512;-2.780;2023-01-23T00:43:37;0.50;82.90
47456;DHT22;33202;48.512;-2.780;2023-01-23T00:46:03;0.40;74.60
47456;DHT22;33202;48.512;-2.780;2023-01-23T00:48:29;0.40;72.10
47456;DHT22;33202;48.512;-2.780;2023-01-23T00:50:55;0.30;71.80
47456;DHT22;33202;48.512;-2.780;2023-01-23T00:53:21;0.30;72.00
47456;DHT22;33202;48.512;-2.780;2023-01-23T00:55:47;0.20;70.50
47456;DHT22;33202;48.512;-2.780;2023-01-23T00:58:12;0.20;69.80
47456;DHT22;33202;48.512;-2.780;2023-01-23T01:00:38;0.10;69.30
47456;DHT22;33202;48.512;-2.780;2023-01-23T01:03:05;0.10;69.80
47456;DHT22;33202;48.512;-2.780;2023-01-23T01:05:31;0.10;73.00
47456;DHT22;33202;48.512;-2.780;2023-01-23T01:07:57;0.20;79.50
47456;DHT22;33202;48.512;-2.780;2023-01-23T01:10:23;0.20;84.30
47456;DHT22;33202;48.512;-2.780;2023-01-23T01:12:56;0.30;92.70
47456;DHT22;33202;48.512;-2.780;2023-01-23T01:15:22;0.50;94.70
47456;DHT22;33202;48.512;-2.780;2023-01-23T01:17:48;0.40;90.90
47456;DHT22;33202;48.512;-2.780;2023-01-23T01:20:14;0.40;81.80
47456;DHT22;33202;48.512;-2.780;2023-01-23T01:22:40;0.40;77.90
47456;DHT22;33202;48.512;-2.780;2023-01-23T01:25:06;0.30;72.80
47456;DHT22;33202;48.512;-2.780;2023-01-23T01:27:32;0.20;68.70
47456;DHT22;33202;48.512;-2.780;2023-01-23T01:29:57;0.20;65.10
47456;DHT22;33202;48.512;-2.780;2023-01-23T01:32:23;0.10;64.90
47456;DHT22;33202;48.512;-2.780;2023-01-23T01:34:50;0.10;64.90
47456;DHT22;33202;48.512;-2.780;2023-01-23T01:37:16;0.00;62.50
47456;DHT22;33202;48.512;-2.780;2023-01-23T01:39:42;0.00;66.40
47456;DHT22;33202;48.512;-2.780;2023-01-23T01:42:07;0.00;69.30
47456;DHT22;33202;48.512;-2.780;2023-01-23T01:44:54;0.00;68.20
47456;DHT22;33202;48.512;-2.780;2023-01-23T01:47:21;-0.10;68.80
47456;DHT22;33202;48.512;-2.780;2023-01-23T01:49:47;-0.10;69.20
47456;DHT22;33202;48.512;-2.780;2023-01-23T01:52:14;-0.10;68.20
47456;DHT22;33202;48.512;-2.780;2023-01-23T02:02:24;-0.10;68.70
47456;DHT22;33202;48.512;-2.780;2023-01-23T02:04:54;-0.10;65.20
47456;DHT22;33202;48.512;-2.780;2023-01-23T02:07:34;-0.20;62.30
47456;DHT22;33202;48.512;-2.780;2023-01-23T02:10:05;-0.20;61.70
47456;DHT22;33202;48.512;-2.780;2023-01-23T02:12:31;-0.20;63.70
47456;DHT22;33202;48.512;-2.780;2023-01-23T02:14:59;-0.20;62.70
47456;DHT22;33202;48.512;-2.780;2023-01-23T02:17:25;-0.30;60.20
47456;DHT22;33202;48.512;-2.780;2023-01-23T02:22:53;-0.30;60.10
47456;DHT22;33202;48.512;-2.780;2023-01-23T02:25:30;-0.30;58.80
47456;DHT22;33202;48.512;-2.780;2023-01-23T02:27:59;-0.30;58.30
47456;DHT22;33202;48.512;-2.780;2023-01-23T02:30:26;-0.40;57.80
47456;DHT22;33202;48.512;-2.780;2023-01-23T02:32:52;-0.40;59.20
47456;DHT22;33202;48.512;-2.780;2023-01-23T02:35:29;-0.40;58.80
47456;DHT22;33202;48.512;-2.780;2023-01-23T02:37:59;-0.40;59.40
47456;DHT22;33202;48.512;-2.780;2023-01-23T02:40:34;-0.50;59.00
47456;DHT22;33202;48.512;-2.780;2023-01-23T02:43:06;-0.40;63.10
47456;DHT22;33202;48.512;-2.780;2023-01-23T02:45:32;-0.40;70.60
47456;DHT22;33202;48.512;-2.780;2023-01-23T02:47:58;-0.40;70.00
47456;DHT22;33202;48.512;-2.780;2023-01-23T02:50:26;-0.40;62.60
47456;DHT22;33202;48.512;-2.780;2023-01-23T02:52:52;-0.50;56.40
47456;DHT22;33202;48.512;-2.780;2023-01-23T02:55:20;-0.50;54.20
47456;DHT22;33202;48.512;-2.780;2023-01-23T02:57:46;-0.50;50.10
47456;DHT22;33202;48.512;-2.780;2023-01-23T03:00:13;-0.60;46.40
47456;DHT22;33202;48.512;-2.780;2023-01-23T03:02:42;-0.60;50.30
47456;DHT22;33202;48.512;-2.780;2023-01-23T03:05:08;-0.60;60.50
47456;DHT22;33202;48.512;-2.780;2023-01-23T03:07:34;-0.60;69.90
47456;DHT22;33202;48.512;-2.780;2023-01-23T03:10:01;-0.50;69.50
47456;DHT22;33202;48.512;-2.780;2023-01-23T03:12:26;-0.60;66.80
47456;DHT22;33202;48.512;-2.780;2023-01-23T03:14:52;-0.60;63.90
47456;DHT22;33202;48.512;-2.780;2023-01-23T03:17:19;-0.60;64.30
47456;DHT22;33202;48.512;-2.780;2023-01-23T03:19:45;-0.60;68.20
47456;DHT22;33202;48.512;-2.780;2023-01-23T03:22:11;-0.60;71.90
47456;DHT22;33202;48.512;-2.780;2023-01-23T03:24:37;-0.60;74.00
47456;DHT22;33202;48.512;-2.780;2023-01-23T03:27:03;-0.60;77.10
47456;DHT22;33202;48.512;-2.780;2023-01-23T03:29:29;-0.50;77.70
47456;DHT22;33202;48.512;-2.780;2023-01-23T03:32:14;-0.50;77.70
47456;DHT22;33202;48.512;-2.780;2023-01-23T03:34:40;-0.40;79.90
47456;DHT22;33202;48.512;-2.780;2023-01-23T03:37:07;-0.40;79.50
47456;DHT22;33202;48.512;-2.780;2023-01-23T03:39:33;-0.50;76.10
47456;DHT22;33202;48.512;-2.780;2023-01-23T03:42:17;-0.50;73.80
47456;DHT22;33202;48.512;-2.780;2023-01-23T03:44:43;-0.50;74.20
47456;DHT22;33202;48.512;-2.780;2023-01-23T03:47:09;-0.50;73.60
47456;DHT22;33202;48.512;-2.780;2023-01-23T03:49:35;-0.50;73.70
47456;DHT22;33202;48.512;-2.780;2023-01-23T03:52:01;-0.50;74.00
47456;DHT22;33202;48.512;-2.780;2023-01-23T03:54:26;-0.50;72.40
47456;DHT22;33202;48.512;-2.780;2023-01-23T03:56:53;-0.50;73.40
47456;DHT22;33202;48.512;-2.780;2023-01-23T03:59:18;-0.50;71.90
47456;DHT22;33202;48.512;-2.780;2023-01-23T04:01:44;-0.50;72.10
47456;DHT22;33202;48.512;-2.780;2023-01-23T04:04:10;-0.50;73.70
47456;DHT22;33202;48.512;-2.780;2023-01-23T04:06:35;-0.50;77.00
47456;DHT22;33202;48.512;-2.780;2023-01-23T04:09:01;-0.50;80.10
47456;DHT22;33202;48.512;-2.780;2023-01-23T04:11:27;-0.40;84.20
47456;DHT22;33202;48.512;-2.780;2023-01-23T04:13:54;-0.40;87.60
47456;DHT22;33202;48.512;-2.780;2023-01-23T04:16:19;-0.40;88.60
47456;DHT22;33202;48.512;-2.780;2023-01-23T04:18:47;-0.40;86.60
47456;DHT22;33202;48.512;-2.780;2023-01-23T04:21:13;-0.30;88.30
47456;DHT22;33202;48.512;-2.780;2023-01-23T04:23:39;-0.30;90.80
47456;DHT22;33202;48.512;-2.780;2023-01-23T04:26:04;-0.20;93.10
47456;DHT22;33202;48.512;-2.780;2023-01-23T04:28:30;-0.10;93.90
47456;DHT22;33202;48.512;-2.780;2023-01-23T04:30:56;-0.10;93.30
47456;DHT22;33202;48.512;-2.780;2023-01-23T04:33:21;-0.10;89.20
47456;DHT22;33202;48.512;-2.780;2023-01-23T04:35:55;-0.10;81.20
47456;DHT22;33202;48.512;-2.780;2023-01-23T04:38:23;-0.20;76.80
47456;DHT22;33202;48.512;-2.780;2023-01-23T04:40:49;-0.20;74.50
47456;DHT22;33202;48.512;-2.780;2023-01-23T04:43:16;-0.30;72.00
47456;DHT22;33202;48.512;-2.780;2023-01-23T04:45:41;-0.30;70.50
47456;DHT22;33202;48.512;-2.780;2023-01-23T04:48:09;-0.30;70.10
47456;DHT22;33202;48.512;-2.780;2023-01-23T04:50:35;-0.40;67.40
47456;DHT22;33202;48.512;-2.780;2023-01-23T04:53:01;-0.40;67.50
47456;DHT22;33202;48.512;-2.780;2023-01-23T04:55:26;-0.40;68.80
47456;DHT22;33202;48.512;-2.780;2023-01-23T04:57:53;-0.40;68.10
47456;DHT22;33202;48.512;-2.780;2023-01-23T05:00:19;-0.50;63.80
47456;DHT22;33202;48.512;-2.780;2023-01-23T05:02:47;-0.50;63.70
47456;DHT22;33202;48.512;-2.780;2023-01-23T05:05:13;-0.50;66.60
47456;DHT22;33202;48.512;-2.780;2023-01-23T05:07:38;-0.50;69.10
47456;DHT22;33202;48.512;-2.780;2023-01-23T05:10:05;-0.50;73.50
47456;DHT22;33202;48.512;-2.780;2023-01-23T05:12:30;-0.50;71.00
47456;DHT22;33202;48.512;-2.780;2023-01-23T05:14:56;-0.50;70.50
47456;DHT22;33202;48.512;-2.780;2023-01-23T05:17:22;-0.50;71.30
47456;DHT22;33202;48.512;-2.780;2023-01-23T05:19:47;-0.50;72.40
47456;DHT22;33202;48.512;-2.780;2023-01-23T05:22:13;-0.60;71.50
47456;DHT22;33202;48.512;-2.780;2023-01-23T05:24:39;-0.60;73.30
47456;DHT22;33202;48.512;-2.780;2023-01-23T05:27:04;-0.60;74.10
47456;DHT22;33202;48.512;-2.780;2023-01-23T05:29:30;-0.60;77.80
47456;DHT22;33202;48.512;-2.780;2023-01-23T05:31:56;-0.60;80.00
47456;DHT22;33202;48.512;-2.780;2023-01-23T05:34:21;-0.50;84.80
47456;DHT22;33202;48.512;-2.780;2023-01-23T05:36:47;-0.50;90.00
47456;DHT22;33202;48.512;-2.780;2023-01-23T05:39:13;-0.50;89.50
47456;DHT22;33202;48.512;-2.780;2023-01-23T05:41:38;-0.50;86.00
47456;DHT22;33202;48.512;-2.780;2023-01-23T05:44:04;-0.50;83.60
47456;DHT22;33202;48.512;-2.780;2023-01-23T05:46:30;-0.50;81.50
47456;DHT22;33202;48.512;-2.780;2023-01-23T05:48:55;-0.60;77.30
47456;DHT22;33202;48.512;-2.780;2023-01-23T05:51:21;-0.60;75.60
47456;DHT22;33202;48.512;-2.780;2023-01-23T05:53:48;-0.50;83.90
47456;DHT22;33202;48.512;-2.780;2023-01-23T05:56:15;-0.40;91.50
47456;DHT22;33202;48.512;-2.780;2023-01-23T05:58:40;-0.40;93.00
47456;DHT22;33202;48.512;-2.780;2023-01-23T06:01:06;-0.40;93.10
47456;DHT22;33202;48.512;-2.780;2023-01-23T06:03:32;-0.40;90.90
47456;DHT22;33202;48.512;-2.780;2023-01-23T06:06:00;-0.40;88.80
47456;DHT22;33202;48.512;-2.780;2023-01-23T06:08:26;-0.40;85.60
47456;DHT22;33202;48.512;-2.780;2023-01-23T06:10:52;-0.40;82.30
47456;DHT22;33202;48.512;-2.780;2023-01-23T06:13:17;-0.50;79.40
47456;DHT22;33202;48.512;-2.780;2023-01-23T06:15:43;-0.50;77.10
47456;DHT22;33202;48.512;-2.780;2023-01-23T06:18:09;-0.60;77.20
47456;DHT22;33202;48.512;-2.780;2023-01-23T06:20:34;-0.50;78.80
47456;DHT22;33202;48.512;-2.780;2023-01-23T06:23:00;-0.50;81.90
47456;DHT22;33202;48.512;-2.780;2023-01-23T06:25:26;-0.50;86.70
47456;DHT22;33202;48.512;-2.780;2023-01-23T06:27:51;-0.50;84.20
47456;DHT22;33202;48.512;-2.780;2023-01-23T06:30:17;-0.50;87.80
47456;DHT22;33202;48.512;-2.780;2023-01-23T06:32:43;-0.40;92.20
47456;DHT22;33202;48.512;-2.780;2023-01-23T06:35:08;-0.30;94.60
47456;DHT22;33202;48.512;-2.780;2023-01-23T06:37:34;-0.30;97.30
47456;DHT22;33202;48.512;-2.780;2023-01-23T06:40:00;-0.20;99.20
47456;DHT22;33202;48.512;-2.780;2023-01-23T06:42:25;-0.20;99.50
47456;DHT22;33202;48.512;-2.780;2023-01-23T06:44:51;-0.10;99.90
47456;DHT22;33202;48.512;-2.780;2023-01-23T06:47:16;-0.10;99.90
47456;DHT22;33202;48.512;-2.780;2023-01-23T06:49:43;-0.10;99.30
47456;DHT22;33202;48.512;-2.780;2023-01-23T06:52:09;-0.10;95.60
47456;DHT22;33202;48.512;-2.780;2023-01-23T06:54:35;-0.10;95.70
47456;DHT22;33202;48.512;-2.780;2023-01-23T06:57:00;-0.10;95.60
47456;DHT22;33202;48.512;-2.780;2023-01-23T06:59:26;-0.10;96.50
47456;DHT22;33202;48.512;-2.780;2023-01-23T07:01:51;-0.10;97.40
47456;DHT22;33202;48.512;-2.780;2023-01-23T07:04:17;-0.10;98.70
47456;DHT22;33202;48.512;-2.780;2023-01-23T07:06:43;0.00;99.30
47456;DHT22;33202;48.512;-2.780;2023-01-23T07:09:08;0.00;99.10
47456;DHT22;33202;48.512;-2.780;2023-01-23T07:11:35;-0.10;98.20
47456;DHT22;33202;48.512;-2.780;2023-01-23T07:14:01;-0.10;97.60
47456;DHT22;33202;48.512;-2.780;2023-01-23T07:16:27;-0.10;97.20
47456;DHT22;33202;48.512;-2.780;2023-01-23T07:18:53;-0.10;97.30
47456;DHT22;33202;48.512;-2.780;2023-01-23T07:21:19;-0.10;98.10
47456;DHT22;33202;48.512;-2.780;2023-01-23T07:23:44;0.00;98.80
47456;DHT22;33202;48.512;-2.780;2023-01-23T07:26:10;0.00;99.90
47456;DHT22;33202;48.512;-2.780;2023-01-23T07:28:36;0.00;99.90
47456;DHT22;33202;48.512;-2.780;2023-01-23T07:31:02;0.00;99.90
47456;DHT22;33202;48.512;-2.780;2023-01-23T07:33:28;0.00;99.90
47456;DHT22;33202;48.512;-2.780;2023-01-23T07:35:54;0.00;99.90
47456;DHT22;33202;48.512;-2.780;2023-01-23T07:38:20;0.10;99.90
47456;DHT22;33202;48.512;-2.780;2023-01-23T07:40:48;0.20;99.90
47456;DHT22;33202;48.512;-2.780;2023-01-23T07:43:14;0.20;99.90
47456;DHT22;33202;48.512;-2.780;2023-01-23T07:45:40;0.10;99.90
47456;DHT22;33202;48.512;-2.780;2023-01-23T07:48:05;0.10;99.90
47456;DHT22;33202;48.512;-2.780;2023-01-23T07:50:32;0.10;99.90
47456;DHT22;33202;48.512;-2.780;2023-01-23T07:52:57;0.10;99.90
47456;DHT22;33202;48.512;-2.780;2023-01-23T07:55:23;0.10;99.90
47456;DHT22;33202;48.512;-2.780;2023-01-23T07:57:48;0.20;99.90
47456;DHT22;33202;48.512;-2.780;2023-01-23T08:00:15;0.10;99.90
47456;DHT22;33202;48.512;-2.780;2023-01-23T08:02:40;0.20;99.90
47456;DHT22;33202;48.512;-2.780;2023-01-23T08:05:06;0.20;99.90
47456;DHT22;33202;48.512;-2.780;2023-01-23T08:07:32;0.20;99.90
47456;DHT22;33202;48.512;-2.780;2023-01-23T08:09:58;0.30;99.90
47456;DHT22;33202;48.512;-2.780;2023-01-23T08:12:23;0.30;99.90
47456;DHT22;33202;48.512;-2.780;2023-01-23T08:14:49;0.30;99.90
47456;DHT22;33202;48.512;-2.780;2023-01-23T08:17:14;0.30;99.90
47456;DHT22;33202;48.512;-2.780;2023-01-23T08:19:40;0.40;99.90
47456;DHT22;33202;48.512;-2.780;2023-01-23T08:22:06;0.40;99.90
47456;DHT22;33202;48.512;-2.780;2023-01-23T08:24:31;0.40;99.90
47456;DHT22;33202;48.512;-2.780;2023-01-23T08:26:57;0.50;99.90
47456;DHT22;33202;48.512;-2.780;2023-01-23T08:29:23;0.50;99.90
47456;DHT22;33202;48.512;-2.780;2023-01-23T08:31:49;0.60;99.90
47456;DHT22;33202;48.512;-2.780;2023-01-23T08:34:16;0.60;99.90
47456;DHT22;33202;48.512;-2.780;2023-01-23T08:36:41;0.60;99.90
47456;DHT22;33202;48.512;-2.780;2023-01-23T08:39:07;0.70;99.90
47456;DHT22;33202;48.512;-2.780;2023-01-23T08:41:32;0.70;99.90
47456;DHT22;33202;48.512;-2.780;2023-01-23T08:43:58;0.80;99.90
47456;DHT22;33202;48.512;-2.780;2023-01-23T08:46:26;0.90;99.90
47456;DHT22;33202;48.512;-2.780;2023-01-23T08:48:52;1.10;99.90
47456;DHT22;33202;48.512;-2.780;2023-01-23T08:51:18;1.30;99.90
47456;DHT22;33202;48.512;-2.780;2023-01-23T08:53:43;1.50;99.90
47456;DHT22;33202;48.512;-2.780;2023-01-23T08:56:14;1.70;99.90
47456;DHT22;33202;48.512;-2.780;2023-01-23T08:58:40;1.80;99.90
47456;DHT22;33202;48.512;-2.780;2023-01-23T09:01:17;1.90;99.90
47456;DHT22;33202;48.512;-2.780;2023-01-23T09:03:42;2.10;99.90
47456;DHT22;33202;48.512;-2.780;2023-01-23T09:06:10;2.20;99.90
47456;DHT22;33202;48.512;-2.780;2023-01-23T09:08:36;2.20;99.90
47456;DHT22;33202;48.512;-2.780;2023-01-23T09:11:04;2.30;99.90
47456;DHT22;33202;48.512;-2.780;2023-01-23T09:13:30;2.40;99.90
47456;DHT22;33202;48.512;-2.780;2023-01-23T09:15:56;2.70;99.90
47456;DHT22;33202;48.512;-2.780;2023-01-23T09:18:22;2.80;99.90
47456;DHT22;33202;48.512;-2.780;2023-01-23T09:20:52;2.90;99.90
47456;DHT22;33202;48.512;-2.780;2023-01-23T09:23:19;3.10;96.70
47456;DHT22;33202;48.512;-2.780;2023-01-23T09:25:44;3.10;93.40
47456;DHT22;33202;48.512;-2.780;2023-01-23T09:28:10;3.20;90.50
47456;DHT22;33202;48.512;-2.780;2023-01-23T09:30:36;3.30;79.00
47456;DHT22;33202;48.512;-2.780;2023-01-23T09:33:02;3.40;69.80
47456;DHT22;33202;48.512;-2.780;2023-01-23T09:35:28;3.50;52.80
47456;DHT22;33202;48.512;-2.780;2023-01-23T09:37:53;3.50;55.20
47456;DHT22;33202;48.512;-2.780;2023-01-23T09:40:36;3.70;52.40
47456;DHT22;33202;48.512;-2.780;2023-01-23T09:43:22;3.70;44.70
47456;DHT22;33202;48.512;-2.780;2023-01-23T09:46:17;3.70;36.20
47456;DHT22;33202;48.512;-2.780;2023-01-23T09:48:44;3.80;39.50
47456;DHT22;33202;48.512;-2.780;2023-01-23T09:53:45;3.90;40.40
47456;DHT22;33202;48.512;-2.780;2023-01-23T09:56:30;4.00;39.40
47456;DHT22;33202;48.512;-2.780;2023-01-23T10:01:23;4.10;36.40
47456;DHT22;33202;48.512;-2.780;2023-01-23T10:03:50;4.10;32.70
47456;DHT22;33202;48.512;-2.780;2023-01-23T10:06:20;4.10;30.10
47456;DHT22;33202;48.512;-2.780;2023-01-23T10:14:22;4.30;24.20
47456;DHT22;33202;48.512;-2.780;2023-01-23T10:22:38;4.30;18.20
47456;DHT22;33202;48.512;-2.780;2023-01-23T10:25:15;4.40;18.80
47456;DHT22;33202;48.512;-2.780;2023-01-23T10:27:45;4.40;15.00
47456;DHT22;33202;48.512;-2.780;2023-01-23T10:30:33;4.50;13.00
47456;DHT22;33202;48.512;-2.780;2023-01-23T10:33:16;4.50;1.00
47456;DHT22;33202;48.512;-2.780;2023-01-23T10:35:55;4.60;1.00
47456;DHT22;33202;48.512;-2.780;2023-01-23T10:38:47;4.60;1.00
47456;DHT22;33202;48.512;-2.780;2023-01-23T10:41:15;4.70;1.00
47456;DHT22;33202;48.512;-2.780;2023-01-23T10:43:51;4.70;1.00
47456;DHT22;33202;48.512;-2.780;2023-01-23T10:46:28;4.70;1.00
47456;DHT22;33202;48.512;-2.780;2023-01-23T10:48:55;4.70;1.00
47456;DHT22;33202;48.512;-2.780;2023-01-23T10:51:44;4.80;1.00
47456;DHT22;33202;48.512;-2.780;2023-01-23T10:54:15;4.80;1.00
47456;DHT22;33202;48.512;-2.780;2023-01-23T10:59:54;4.90;1.00
47456;DHT22;33202;48.512;-2.780;2023-01-23T11:04:51;5.00;1.00
47456;DHT22;33202;48.512;-2.780;2023-01-23T11:07:28;5.00;1.00
47456;DHT22;33202;48.512;-2.780;2023-01-23T11:10:01;5.10;1.00
47456;DHT22;33202;48.512;-2.780;2023-01-23T11:12:31;5.10;1.00
47456;DHT22;33202;48.512;-2.780;2023-01-23T11:15:20;5.00;1.00
47456;DHT22;33202;48.512;-2.780;2023-01-23T11:17:47;5.00;1.00
47456;DHT22;33202;48.512;-2.780;2023-01-23T11:20:31;5.00;1.00
47456;DHT22;33202;48.512;-2.780;2023-01-23T11:23:25;5.10;1.00
47456;DHT22;33202;48.512;-2.780;2023-01-23T11:25:52;5.10;1.00
47456;DHT22;33202;48.512;-2.780;2023-01-23T11:28:27;5.10;1.00
47456;DHT22;33202;48.512;-2.780;2023-01-23T11:39:00;5.20;1.00
47456;DHT22;33202;48.512;-2.780;2023-01-23T11:41:29;5.20;1.00
47456;DHT22;33202;48.512;-2.780;2023-01-23T11:43:55;5.20;3.40
47456;DHT22;33202;48.512;-2.780;2023-01-23T12:11:04;5.60;1.00
47456;DHT22;33202;48.512;-2.780;2023-01-23T12:13:53;5.60;1.00
47456;DHT22;33202;48.512;-2.780;2023-01-23T12:26:58;5.50;1.00
47456;DHT22;33202;48.512;-2.780;2023-01-23T12:38:30;5.60;1.00
47456;DHT22;33202;48.512;-2.780;2023-01-23T12:41:11;5.50;1.00
47456;DHT22;33202;48.512;-2.780;2023-01-23T12:49:02;5.50;1.00
47456;DHT22;33202;48.512;-2.780;2023-01-23T12:51:36;5.50;1.00
47456;DHT22;33202;48.512;-2.780;2023-01-23T12:54:06;5.40;1.00
47456;DHT22;33202;48.512;-2.780;2023-01-23T12:56:36;5.40;1.00
47456;DHT22;33202;48.512;-2.780;2023-01-23T12:59:17;5.40;1.00
47456;DHT22;33202;48.512;-2.780;2023-01-23T13:02:04;5.50;1.00
47456;DHT22;33202;48.512;-2.780;2023-01-23T13:13:14;5.50;1.60
47456;DHT22;33202;48.512;-2.780;2023-01-23T13:15:41;5.50;1.00
47456;DHT22;33202;48.512;-2.780;2023-01-23T13:18:23;5.50;1.00
47456;DHT22;33202;48.512;-2.780;2023-01-23T13:20:58;5.50;1.00
47456;DHT22;33202;48.512;-2.780;2023-01-23T13:23:43;5.50;1.00
47456;DHT22;33202;48.512;-2.780;2023-01-23T13:33:51;5.60;1.00
47456;DHT22;33202;48.512;-2.780;2023-01-23T13:36:29;5.60;1.00
47456;DHT22;33202;48.512;-2.780;2023-01-23T13:38:59;5.70;1.00
47456;DHT22;33202;48.512;-2.780;2023-01-23T13:41:30;5.70;1.00
47456;DHT22;33202;48.512;-2.780;2023-01-23T13:44:15;5.80;1.00
47456;DHT22;33202;48.512;-2.780;2023-01-23T13:52:55;5.80;1.00
47456;DHT22;33202;48.512;-2.780;2023-01-23T13:55:41;5.80;1.00
47456;DHT22;33202;48.512;-2.780;2023-01-23T13:58:28;5.80;1.00
47456;DHT22;33202;48.512;-2.780;2023-01-23T14:03:53;5.80;1.00
47456;DHT22;33202;48.512;-2.780;2023-01-23T14:06:39;5.80;1.00
47456;DHT22;33202;48.512;-2.780;2023-01-23T14:09:28;5.80;1.00
47456;DHT22;33202;48.512;-2.780;2023-01-23T14:11:58;5.90;1.00
47456;DHT22;33202;48.512;-2.780;2023-01-23T14:14:31;6.00;1.00
47456;DHT22;33202;48.512;-2.780;2023-01-23T14:17:16;6.00;1.00
47456;DHT22;33202;48.512;-2.780;2023-01-23T14:22:21;6.10;1.00
47456;DHT22;33202;48.512;-2.780;2023-01-23T14:24:52;6.00;1.00
47456;DHT22;33202;48.512;-2.780;2023-01-23T14:27:36;6.00;1.00
47456;DHT22;33202;48.512;-2.780;2023-01-23T14:32:31;5.90;1.00
47456;DHT22;33202;48.512;-2.780;2023-01-23T14:34:57;5.90;1.00
47456;DHT22;33202;48.512;-2.780;2023-01-23T14:37:23;5.80;1.00
47456;DHT22;33202;48.512;-2.780;2023-01-23T14:39:50;5.80;1.00
47456;DHT22;33202;48.512;-2.780;2023-01-23T14:42:26;5.90;1.00
47456;DHT22;33202;48.512;-2.780;2023-01-23T14:44:53;6.00;1.00
47456;DHT22;33202;48.512;-2.780;2023-01-23T14:47:31;6.10;1.00
47456;DHT22;33202;48.512;-2.780;2023-01-23T14:49:58;6.20;1.00
47456;DHT22;33202;48.512;-2.780;2023-01-23T14:52:28;6.30;1.00
47456;DHT22;33202;48.512;-2.780;2023-01-23T14:54:58;6.40;1.00
47456;DHT22;33202;48.512;-2.780;2023-01-23T14:57:25;6.30;1.00
47456;DHT22;33202;48.512;-2.780;2023-01-23T14:59:57;6.20;1.00
47456;DHT22;33202;48.512;-2.780;2023-01-23T15:08:05;6.00;1.00
47456;DHT22;33202;48.512;-2.780;2023-01-23T15:10:43;6.00;1.00
47456;DHT22;33202;48.512;-2.780;2023-01-23T15:13:23;5.90;1.00
47456;DHT22;33202;48.512;-2.780;2023-01-23T15:15:58;5.90;1.00
47456;DHT22;33202;48.512;-2.780;2023-01-23T15:18:27;5.80;1.00
47456;DHT22;33202;48.512;-2.780;2023-01-23T15:20:59;5.80;1.00
47456;DHT22;33202;48.512;-2.780;2023-01-23T15:23:37;5.90;1.00
47456;DHT22;33202;48.512;-2.780;2023-01-23T15:26:35;6.00;1.00
47456;DHT22;33202;48.512;-2.780;2023-01-23T15:34:22;6.30;1.00
47456;DHT22;33202;48.512;-2.780;2023-01-23T15:44:40;6.10;1.00
47456;DHT22;33202;48.512;-2.780;2023-01-23T15:47:06;6.00;1.00
47456;DHT22;33202;48.512;-2.780;2023-01-23T15:49:33;5.90;1.00
47456;DHT22;33202;48.512;-2.780;2023-01-23T15:54:46;5.80;1.00
47456;DHT22;33202;48.512;-2.780;2023-01-23T15:57:12;5.90;1.00
47456;DHT22;33202;48.512;-2.780;2023-01-23T15:59:38;5.80;1.00
47456;DHT22;33202;48.512;-2.780;2023-01-23T16:02:05;5.80;1.00
47456;DHT22;33202;48.512;-2.780;2023-01-23T16:04:31;5.80;1.00
47456;DHT22;33202;48.512;-2.780;2023-01-23T16:07:04;5.80;1.00
47456;DHT22;33202;48.512;-2.780;2023-01-23T16:09:33;5.80;1.00
47456;DHT22;33202;48.512;-2.780;2023-01-23T16:12:00;5.80;1.00
47456;DHT22;33202;48.512;-2.780;2023-01-23T16:14:27;5.80;1.00
47456;DHT22;33202;48.512;-2.780;2023-01-23T16:16:52;5.80;1.00
47456;DHT22;33202;48.512;-2.780;2023-01-23T16:19:18;5.70;1.00
47456;DHT22;33202;48.512;-2.780;2023-01-23T16:21:44;5.70;1.00
47456;DHT22;33202;48.512;-2.780;2023-01-23T16:24:20;5.70;1.00
47456;DHT22;33202;48.512;-2.780;2023-01-23T16:26:48;5.70;1.00
47456;DHT22;33202;48.512;-2.780;2023-01-23T16:29:32;5.70;1.00
47456;DHT22;33202;48.512;-2.780;2023-01-23T16:32:00;5.70;1.00
47456;DHT22;33202;48.512;-2.780;2023-01-23T16:34:25;5.70;1.00
47456;DHT22;33202;48.512;-2.780;2023-01-23T16:36:53;5.60;1.00
47456;DHT22;33202;48.512;-2.780;2023-01-23T16:39:22;5.60;1.00
47456;DHT22;33202;48.512;-2.780;2023-01-23T16:41:49;5.60;1.00
47456;DHT22;33202;48.512;-2.780;2023-01-23T16:44:16;5.60;1.00
47456;DHT22;33202;48.512;-2.780;2023-01-23T16:46:45;5.60;1.00
47456;DHT22;33202;48.512;-2.780;2023-01-23T16:49:12;5.60;1.00
47456;DHT22;33202;48.512;-2.780;2023-01-23T16:51:39;5.60;1.00
47456;DHT22;33202;48.512;-2.780;2023-01-23T16:54:15;5.60;1.00
47456;DHT22;33202;48.512;-2.780;2023-01-23T16:56:42;5.60;1.00
47456;DHT22;33202;48.512;-2.780;2023-01-23T16:59:16;5.60;1.00
47456;DHT22;33202;48.512;-2.780;2023-01-23T17:01:44;5.60;1.00
47456;DHT22;33202;48.512;-2.780;2023-01-23T17:04:13;5.50;1.00
47456;DHT22;33202;48.512;-2.780;2023-01-23T17:06:39;5.60;1.00
47456;DHT22;33202;48.512;-2.780;2023-01-23T17:09:05;5.60;1.00
47456;DHT22;33202;48.512;-2.780;2023-01-23T17:11:46;5.60;1.00
47456;DHT22;33202;48.512;-2.780;2023-01-23T17:14:18;5.60;1.00
47456;DHT22;33202;48.512;-2.780;2023-01-23T17:16:46;5.60;1.00
47456;DHT22;33202;48.512;-2.780;2023-01-23T17:21:44;5.60;1.00
47456;DHT22;33202;48.512;-2.780;2023-01-23T17:24:16;5.60;1.00
47456;DHT22;33202;48.512;-2.780;2023-01-23T17:26:42;5.60;1.00
47456;DHT22;33202;48.512;-2.780;2023-01-23T17:29:08;5.60;1.00
47456;DHT22;33202;48.512;-2.780;2023-01-23T17:31:34;5.60;1.00
47456;DHT22;33202;48.512;-2.780;2023-01-23T17:34:01;5.70;1.00
47456;DHT22;33202;48.512;-2.780;2023-01-23T17:36:27;5.60;1.00
47456;DHT22;33202;48.512;-2.780;2023-01-23T17:38:59;5.70;5.00
47456;DHT22;33202;48.512;-2.780;2023-01-23T17:41:25;5.70;5.60
47456;DHT22;33202;48.512;-2.780;2023-01-23T17:43:50;5.70;9.50
47456;DHT22;33202;48.512;-2.780;2023-01-23T17:46:26;5.70;8.90
47456;DHT22;33202;48.512;-2.780;2023-01-23T17:48:53;5.70;10.10
47456;DHT22;33202;48.512;-2.780;2023-01-23T17:51:20;5.70;10.00
47456;DHT22;33202;48.512;-2.780;2023-01-23T17:53:46;5.70;12.50
47456;DHT22;33202;48.512;-2.780;2023-01-23T17:56:12;5.70;12.20
47456;DHT22;33202;48.512;-2.780;2023-01-23T17:58:38;5.70;12.90
47456;DHT22;33202;48.512;-2.780;2023-01-23T18:01:09;5.80;14.10
47456;DHT22;33202;48.512;-2.780;2023-01-23T18:03:40;5.80;14.00
47456;DHT22;33202;48.512;-2.780;2023-01-23T18:06:06;5.80;13.30